Vinton, VA (24179)

2:41 PM EDT on August 31, 2015 (GMT -0400)
Vinton | | Change Station
CLOSE
Current Station
Personal Weather Station
Location: Vinton, VA
Elevation: 1120 ft
Nearby Weather Stations

Elev 1120 ft 37.28 °N, 79.88 °W | Updated 1 second ago

Mostly Cloudy
Mostly Cloudy
87.1 °F
Feels Like 86 °F
N
1.5
Wind Variable Wind from NNW
Gusts 6.9 mph

Today
High -- | Low -- °F
--% Chance of Precip.
Yesterday
High -- | Low -- °F
Precip. -- in
6:49 AM 7:50 PM
Waning Gibbous, 94% visible
Pressure 30.10 in
Visibility 10.0 miles
Clouds Mostly Cloudy 7000 ft
Heat Index 86 °F
Dew Point 58 °F
Humidity 38%
Rainfall 0.00 in
Snow Depth Not available.
UV 5 out of 12
Pollen 8.70 out of 12
Air Quality Not available.
Flu Activity Not available.
METAR KROA 311754Z VRB05KT 10SM BKN070 29/16 A3014 RMK AO2 SLP192 T02890156 10289 20200 58011
Pressure 30.10 in
Visibility 10.0 miles
Clouds Mostly Cloudy 7000 ft
Heat Index 86 °F
Dew Point 58 °F
Humidity 38%
Rainfall 0.00 in
Snow Depth Not available.
UV 5 out of 12
Pollen 8.70 out of 12
Air Quality Not available.
Flu Activity Not available.
METAR KROA 311754Z VRB05KT 10SM BKN070 29/16 A3014 RMK AO2 SLP192 T02890156 10289 20200 58011

10-Day Weather Forecast

×

Almanac

Astronomy

Aug. 31, 2015 Rise Set
Actual Time
Civil Twilight
Nautical Twilight
Astronomical Twilight
Moon
Length of Visible Light
Length of Day
Tomorrow will be .
, % of the Moon is Illuminated

Today's Extremes

State Highs State Lows

Community

WunderPhotos

Upload Photos

1,851,334 photos uploaded!

WunderBlogs® & News

Nearby

Air Quality

  Air Quality AQ Index Pollutant
Not available.

Snow Depth

Station Depth Elevation

Earthquake Activity

City Distance Mag. Time & Date
Minimum magnitude displayed is 2.5.

Coastal Water Temperatures

Place Temperature

Stations

Nearby Weather Stations

Station Location Temp. Windchill Dew Point Humidity Wind Precip. Elev Updated Type